sensor_id;sensor_type;location;lat;lon;timestamp;P1;durP1;ratioP1;P2;durP2;ratioP2
18610;SDS011;9435;52.122;5.502;2023-10-08T00:02:09;15.43;;;5.18;;
18610;SDS011;9435;52.122;5.502;2023-10-08T00:04:40;21.63;;;5.63;;
18610;SDS011;9435;52.122;5.502;2023-10-08T00:07:09;19.05;;;5.38;;
18610;SDS011;9435;52.122;5.502;2023-10-08T00:09:36;24.42;;;5.93;;
18610;SDS011;9435;52.122;5.502;2023-10-08T00:12:04;22.45;;;6.15;;
18610;SDS011;9435;52.122;5.502;2023-10-08T00:14:33;23.75;;;5.93;;
18610;SDS011;9435;52.122;5.502;2023-10-08T00:17:09;20.50;;;5.72;;
18610;SDS011;9435;52.122;5.502;2023-10-08T00:19:37;22.30;;;5.32;;
18610;SDS011;9435;52.122;5.502;2023-10-08T00:22:06;18.60;;;5.50;;
18610;SDS011;9435;52.122;5.502;2023-10-08T00:24:34;17.45;;;5.40;;
18610;SDS011;9435;52.122;5.502;2023-10-08T00:27:06;21.38;;;6.18;;
18610;SDS011;9435;52.122;5.502;2023-10-08T00:29:34;23.33;;;5.68;;
18610;SDS011;9435;52.122;5.502;2023-10-08T00:32:04;22.83;;;6.20;;
18610;SDS011;9435;52.122;5.502;2023-10-08T00:34:37;19.05;;;5.47;;
18610;SDS011;9435;52.122;5.502;2023-10-08T00:37:09;24.00;;;6.18;;
18610;SDS011;9435;52.122;5.502;2023-10-08T00:39:40;19.60;;;5.85;;
18610;SDS011;9435;52.122;5.502;2023-10-08T00:42:07;21.58;;;6.00;;
18610;SDS011;9435;52.122;5.502;2023-10-08T00:44:35;17.98;;;5.55;;
18610;SDS011;9435;52.122;5.502;2023-10-08T00:47:12;20.63;;;5.57;;
18610;SDS011;9435;52.122;5.502;2023-10-08T00:49:41;19.60;;;5.90;;
18610;SDS011;9435;52.122;5.502;2023-10-08T00:52:21;21.70;;;5.80;;
18610;SDS011;9435;52.122;5.502;2023-10-08T00:55:05;18.95;;;5.47;;
18610;SDS011;9435;52.122;5.502;2023-10-08T00:57:46;19.30;;;5.47;;
18610;SDS011;9435;52.122;5.502;2023-10-08T01:00:18;17.30;;;5.63;;
18610;SDS011;9435;52.122;5.502;2023-10-08T01:02:48;20.50;;;5.88;;
18610;SDS011;9435;52.122;5.502;2023-10-08T01:05:25;18.00;;;5.38;;
18610;SDS011;9435;52.122;5.502;2023-10-08T01:08:08;18.33;;;5.13;;
18610;SDS011;9435;52.122;5.502;2023-10-08T01:10:39;18.08;;;5.90;;
18610;SDS011;9435;52.122;5.502;2023-10-08T01:13:09;18.60;;;5.60;;
18610;SDS011;9435;52.122;5.502;2023-10-08T01:15:40;21.02;;;5.63;;
18610;SDS011;9435;52.122;5.502;2023-10-08T01:18:10;20.65;;;5.97;;
18610;SDS011;9435;52.122;5.502;2023-10-08T01:20:42;18.52;;;5.70;;
18610;SDS011;9435;52.122;5.502;2023-10-08T01:23:19;18.77;;;5.60;;
18610;SDS011;9435;52.122;5.502;2023-10-08T01:25:48;20.88;;;6.00;;
18610;SDS011;9435;52.122;5.502;2023-10-08T01:28:17;20.10;;;5.65;;
18610;SDS011;9435;52.122;5.502;2023-10-08T01:30:51;21.15;;;6.15;;
18610;SDS011;9435;52.122;5.502;2023-10-08T01:33:20;19.23;;;6.10;;
18610;SDS011;9435;52.122;5.502;2023-10-08T01:35:53;24.95;;;6.15;;
18610;SDS011;9435;52.122;5.502;2023-10-08T01:38:28;23.90;;;6.47;;
18610;SDS011;9435;52.122;5.502;2023-10-08T01:40:56;19.58;;;6.00;;
18610;SDS011;9435;52.122;5.502;2023-10-08T01:43:28;22.98;;;6.88;;
18610;SDS011;9435;52.122;5.502;2023-10-08T01:45:55;20.90;;;5.88;;
18610;SDS011;9435;52.122;5.502;2023-10-08T01:48:23;20.02;;;6.40;;
18610;SDS011;9435;52.122;5.502;2023-10-08T01:50:54;19.85;;;6.63;;
18610;SDS011;9435;52.122;5.502;2023-10-08T01:53:23;20.92;;;6.60;;
18610;SDS011;9435;52.122;5.502;2023-10-08T01:55:53;20.48;;;6.45;;
18610;SDS011;9435;52.122;5.502;2023-10-08T01:58:20;19.77;;;6.90;;
18610;SDS011;9435;52.122;5.502;2023-10-08T02:00:48;22.58;;;6.65;;
18610;SDS011;9435;52.122;5.502;2023-10-08T02:03:17;20.40;;;6.43;;
18610;SDS011;9435;52.122;5.502;2023-10-08T02:05:45;23.42;;;7.32;;
18610;SDS011;9435;52.122;5.502;2023-10-08T02:08:12;21.40;;;6.80;;
18610;SDS011;9435;52.122;5.502;2023-10-08T02:10:42;18.40;;;6.80;;
18610;SDS011;9435;52.122;5.502;2023-10-08T02:13:13;21.92;;;7.20;;
18610;SDS011;9435;52.122;5.502;2023-10-08T02:15:43;21.23;;;6.90;;
18610;SDS011;9435;52.122;5.502;2023-10-08T02:18:12;17.65;;;6.45;;
18610;SDS011;9435;52.122;5.502;2023-10-08T02:20:39;22.13;;;6.78;;
18610;SDS011;9435;52.122;5.502;2023-10-08T02:23:07;24.25;;;6.75;;
18610;SDS011;9435;52.122;5.502;2023-10-08T02:25:37;26.90;;;7.07;;
18610;SDS011;9435;52.122;5.502;2023-10-08T02:28:05;19.20;;;6.40;;
18610;SDS011;9435;52.122;5.502;2023-10-08T02:30:36;19.02;;;6.38;;
18610;SDS011;9435;52.122;5.502;2023-10-08T02:33:04;20.48;;;6.80;;
18610;SDS011;9435;52.122;5.502;2023-10-08T02:35:39;26.23;;;6.97;;
18610;SDS011;9435;52.122;5.502;2023-10-08T02:38:07;22.98;;;6.50;;
18610;SDS011;9435;52.122;5.502;2023-10-08T02:40:37;23.05;;;6.82;;
18610;SDS011;9435;52.122;5.502;2023-10-08T02:43:10;24.42;;;6.70;;
18610;SDS011;9435;52.122;5.502;2023-10-08T02:45:43;20.35;;;6.65;;
18610;SDS011;9435;52.122;5.502;2023-10-08T02:48:12;20.60;;;6.53;;
18610;SDS011;9435;52.122;5.502;2023-10-08T02:50:41;24.13;;;7.22;;
18610;SDS011;9435;52.122;5.502;2023-10-08T02:53:10;21.88;;;6.93;;
18610;SDS011;9435;52.122;5.502;2023-10-08T02:55:37;23.33;;;7.00;;
18610;SDS011;9435;52.122;5.502;2023-10-08T02:58:09;20.33;;;6.57;;
18610;SDS011;9435;52.122;5.502;2023-10-08T03:00:41;20.90;;;7.10;;
18610;SDS011;9435;52.122;5.502;2023-10-08T03:03:08;22.00;;;7.63;;
18610;SDS011;9435;52.122;5.502;2023-10-08T03:05:41;19.67;;;7.22;;
18610;SDS011;9435;52.122;5.502;2023-10-08T03:08:12;20.70;;;7.00;;
18610;SDS011;9435;52.122;5.502;2023-10-08T03:10:44;26.88;;;7.93;;
18610;SDS011;9435;52.122;5.502;2023-10-08T03:13:13;20.15;;;7.22;;
18610;SDS011;9435;52.122;5.502;2023-10-08T03:15:43;22.70;;;7.15;;
18610;SDS011;9435;52.122;5.502;2023-10-08T03:18:23;22.42;;;7.07;;
18610;SDS011;9435;52.122;5.502;2023-10-08T03:20:50;18.48;;;6.70;;
18610;SDS011;9435;52.122;5.502;2023-10-08T03:23:18;25.08;;;7.22;;
18610;SDS011;9435;52.122;5.502;2023-10-08T03:25:58;21.65;;;6.70;;
18610;SDS011;9435;52.122;5.502;2023-10-08T03:28:30;23.92;;;7.32;;
18610;SDS011;9435;52.122;5.502;2023-10-08T03:31:01;21.88;;;6.75;;
18610;SDS011;9435;52.122;5.502;2023-10-08T03:33:39;22.35;;;6.57;;
18610;SDS011;9435;52.122;5.502;2023-10-08T03:36:08;23.38;;;6.85;;
18610;SDS011;9435;52.122;5.502;2023-10-08T03:38:39;20.23;;;6.35;;
18610;SDS011;9435;52.122;5.502;2023-10-08T03:41:17;19.90;;;6.63;;
18610;SDS011;9435;52.122;5.502;2023-10-08T03:43:46;25.88;;;8.73;;
18610;SDS011;9435;52.122;5.502;2023-10-08T03:46:22;18.95;;;6.72;;
18610;SDS011;9435;52.122;5.502;2023-10-08T03:48:51;20.92;;;6.82;;
18610;SDS011;9435;52.122;5.502;2023-10-08T03:51:22;19.55;;;7.72;;
18610;SDS011;9435;52.122;5.502;2023-10-08T03:53:52;22.90;;;7.95;;
18610;SDS011;9435;52.122;5.502;2023-10-08T03:56:40;27.30;;;8.80;;
18610;SDS011;9435;52.122;5.502;2023-10-08T03:59:11;24.77;;;9.50;;
18610;SDS011;9435;52.122;5.502;2023-10-08T04:01:41;24.75;;;8.93;;
18610;SDS011;9435;52.122;5.502;2023-10-08T04:04:09;26.27;;;8.77;;
18610;SDS011;9435;52.122;5.502;2023-10-08T04:06:39;37.05;;;12.15;;
18610;SDS011;9435;52.122;5.502;2023-10-08T04:09:13;35.30;;;11.52;;
18610;SDS011;9435;52.122;5.502;2023-10-08T04:11:49;37.80;;;12.40;;
18610;SDS011;9435;52.122;5.502;2023-10-08T04:14:28;34.78;;;12.30;;
18610;SDS011;9435;52.122;5.502;2023-10-08T04:16:58;28.95;;;12.38;;
18610;SDS011;9435;52.122;5.502;2023-10-08T04:19:25;31.73;;;11.50;;
18610;SDS011;9435;52.122;5.502;2023-10-08T04:21:53;40.63;;;11.32;;
18610;SDS011;9435;52.122;5.502;2023-10-08T04:24:21;32.80;;;10.48;;
18610;SDS011;9435;52.122;5.502;2023-10-08T04:27:00;42.75;;;10.18;;
18610;SDS011;9435;52.122;5.502;2023-10-08T04:29:30;35.40;;;9.70;;
18610;SDS011;9435;52.122;5.502;2023-10-08T04:32:00;35.58;;;9.95;;
18610;SDS011;9435;52.122;5.502;2023-10-08T04:34:33;43.10;;;10.00;;
18610;SDS011;9435;52.122;5.502;2023-10-08T04:37:00;39.22;;;10.32;;
18610;SDS011;9435;52.122;5.502;2023-10-08T04:39:29;39.33;;;10.05;;
18610;SDS011;9435;52.122;5.502;2023-10-08T04:41:59;46.22;;;10.40;;
18610;SDS011;9435;52.122;5.502;2023-10-08T04:44:33;37.55;;;10.30;;
18610;SDS011;9435;52.122;5.502;2023-10-08T04:47:05;29.75;;;9.50;;
18610;SDS011;9435;52.122;5.502;2023-10-08T04:49:53;34.35;;;9.80;;
18610;SDS011;9435;52.122;5.502;2023-10-08T04:52:21;31.30;;;9.38;;
18610;SDS011;9435;52.122;5.502;2023-10-08T04:54:50;36.38;;;9.48;;
18610;SDS011;9435;52.122;5.502;2023-10-08T04:57:20;37.70;;;9.82;;
18610;SDS011;9435;52.122;5.502;2023-10-08T04:59:50;41.40;;;9.80;;
18610;SDS011;9435;52.122;5.502;2023-10-08T05:02:24;33.20;;;9.50;;
18610;SDS011;9435;52.122;5.502;2023-10-08T05:05:00;24.58;;;8.63;;
18610;SDS011;9435;52.122;5.502;2023-10-08T05:07:47;23.52;;;8.25;;
18610;SDS011;9435;52.122;5.502;2023-10-08T05:10:26;24.95;;;7.60;;
18610;SDS011;9435;52.122;5.502;2023-10-08T05:13:25;23.52;;;6.63;;
18610;SDS011;9435;52.122;5.502;2023-10-08T05:15:58;24.58;;;6.60;;
18610;SDS011;9435;52.122;5.502;2023-10-08T05:18:56;22.60;;;6.30;;
18610;SDS011;9435;52.122;5.502;2023-10-08T05:21:37;20.23;;;5.60;;
18610;SDS011;9435;52.122;5.502;2023-10-08T05:24:17;24.48;;;5.53;;
18610;SDS011;9435;52.122;5.502;2023-10-08T05:26:53;21.35;;;5.15;;
18610;SDS011;9435;52.122;5.502;2023-10-08T05:29:40;20.25;;;5.18;;
18610;SDS011;9435;52.122;5.502;2023-10-08T05:32:36;16.77;;;4.70;;
18610;SDS011;9435;52.122;5.502;2023-10-08T05:35:32;16.88;;;4.72;;
18610;SDS011;9435;52.122;5.502;2023-10-08T05:38:15;18.00;;;5.18;;
18610;SDS011;9435;52.122;5.502;2023-10-08T05:40:48;15.80;;;3.97;;
18610;SDS011;9435;52.122;5.502;2023-10-08T05:43:42;12.32;;;4.43;;
18610;SDS011;9435;52.122;5.502;2023-10-08T05:46:21;17.77;;;3.70;;
18610;SDS011;9435;52.122;5.502;2023-10-08T05:49:14;10.93;;;3.90;;
18610;SDS011;9435;52.122;5.502;2023-10-08T05:52:09;10.02;;;2.85;;
18610;SDS011;9435;52.122;5.502;2023-10-08T05:54:51;14.05;;;3.70;;
18610;SDS011;9435;52.122;5.502;2023-10-08T05:57:41;8.55;;;3.05;;
18610;SDS011;9435;52.122;5.502;2023-10-08T06:00:12;11.10;;;3.17;;
18610;SDS011;9435;52.122;5.502;2023-10-08T06:02:57;14.20;;;3.20;;
18610;SDS011;9435;52.122;5.502;2023-10-08T06:05:36;8.88;;;3.22;;
18610;SDS011;9435;52.122;5.502;2023-10-08T06:08:14;12.23;;;2.97;;
18610;SDS011;9435;52.122;5.502;2023-10-08T06:10:46;12.18;;;2.78;;
18610;SDS011;9435;52.122;5.502;2023-10-08T06:13:21;14.00;;;2.90;;
18610;SDS011;9435;52.122;5.502;2023-10-08T06:15:56;7.32;;;2.70;;
18610;SDS011;9435;52.122;5.502;2023-10-08T06:18:33;15.30;;;2.88;;
18610;SDS011;9435;52.122;5.502;2023-10-08T06:21:00;7.00;;;2.50;;
18610;SDS011;9435;52.122;5.502;2023-10-08T06:23:35;10.27;;;2.45;;
18610;SDS011;9435;52.122;5.502;2023-10-08T06:26:04;8.38;;;2.30;;
18610;SDS011;9435;52.122;5.502;2023-10-08T06:28:40;9.95;;;2.65;;
18610;SDS011;9435;52.122;5.502;2023-10-08T06:31:09;9.35;;;2.17;;
18610;SDS011;9435;52.122;5.502;2023-10-08T06:33:41;9.18;;;2.40;;
18610;SDS011;9435;52.122;5.502;2023-10-08T06:36:09;14.70;;;2.90;;
18610;SDS011;9435;52.122;5.502;2023-10-08T06:38:42;8.07;;;2.47;;
18610;SDS011;9435;52.122;5.502;2023-10-08T06:41:13;9.75;;;2.33;;
18610;SDS011;9435;52.122;5.502;2023-10-08T06:43:43;6.70;;;2.40;;
18610;SDS011;9435;52.122;5.502;2023-10-08T06:46:13;11.50;;;2.55;;
18610;SDS011;9435;52.122;5.502;2023-10-08T06:48:45;11.00;;;2.63;;
18610;SDS011;9435;52.122;5.502;2023-10-08T06:51:14;9.27;;;2.80;;
18610;SDS011;9435;52.122;5.502;2023-10-08T06:53:45;6.25;;;2.72;;
18610;SDS011;9435;52.122;5.502;2023-10-08T06:56:14;6.53;;;2.78;;
18610;SDS011;9435;52.122;5.502;2023-10-08T06:58:43;7.93;;;2.78;;
18610;SDS011;9435;52.122;5.502;2023-10-08T07:01:13;5.95;;;2.70;;
18610;SDS011;9435;52.122;5.502;2023-10-08T07:03:47;7.00;;;3.00;;
18610;SDS011;9435;52.122;5.502;2023-10-08T07:06:16;6.68;;;3.20;;
18610;SDS011;9435;52.122;5.502;2023-10-08T07:08:52;6.32;;;3.30;;
18610;SDS011;9435;52.122;5.502;2023-10-08T07:11:20;7.03;;;3.28;;
18610;SDS011;9435;52.122;5.502;2023-10-08T07:13:49;6.75;;;3.30;;
18610;SDS011;9435;52.122;5.502;2023-10-08T07:16:17;7.30;;;3.22;;
18610;SDS011;9435;52.122;5.502;2023-10-08T07:18:46;6.78;;;3.47;;
18610;SDS011;9435;52.122;5.502;2023-10-08T07:21:17;7.50;;;3.40;;
18610;SDS011;9435;52.122;5.502;2023-10-08T07:23:55;7.50;;;3.53;;
18610;SDS011;9435;52.122;5.502;2023-10-08T07:26:24;7.53;;;3.20;;
18610;SDS011;9435;52.122;5.502;2023-10-08T07:29:01;7.55;;;3.38;;
18610;SDS011;9435;52.122;5.502;2023-10-08T07:31:33;6.78;;;3.35;;
18610;SDS011;9435;52.122;5.502;2023-10-08T07:34:01;6.85;;;3.72;;
18610;SDS011;9435;52.122;5.502;2023-10-08T07:36:41;7.93;;;3.83;;
18610;SDS011;9435;52.122;5.502;2023-10-08T07:39:11;8.77;;;3.90;;
18610;SDS011;9435;52.122;5.502;2023-10-08T07:41:51;9.07;;;3.97;;
18610;SDS011;9435;52.122;5.502;2023-10-08T07:44:20;6.45;;;3.75;;
18610;SDS011;9435;52.122;5.502;2023-10-08T07:46:48;9.05;;;4.20;;
18610;SDS011;9435;52.122;5.502;2023-10-08T07:49:16;7.63;;;4.15;;
18610;SDS011;9435;52.122;5.502;2023-10-08T07:51:43;11.23;;;4.82;;
18610;SDS011;9435;52.122;5.502;2023-10-08T07:54:18;8.98;;;4.10;;
18610;SDS011;9435;52.122;5.502;2023-10-08T07:56:46;7.97;;;4.10;;
18610;SDS011;9435;52.122;5.502;2023-10-08T07:59:14;7.25;;;4.15;;
18610;SDS011;9435;52.122;5.502;2023-10-08T08:01:41;9.75;;;4.60;;
18610;SDS011;9435;52.122;5.502;2023-10-08T08:04:09;8.25;;;4.20;;
18610;SDS011;9435;52.122;5.502;2023-10-08T08:06:46;7.68;;;4.15;;
18610;SDS011;9435;52.122;5.502;2023-10-08T08:09:15;8.75;;;4.03;;
18610;SDS011;9435;52.122;5.502;2023-10-08T08:11:45;8.57;;;4.30;;
18610;SDS011;9435;52.122;5.502;2023-10-08T08:14:13;7.80;;;3.97;;
18610;SDS011;9435;52.122;5.502;2023-10-08T08:16:43;7.13;;;3.97;;
18610;SDS011;9435;52.122;5.502;2023-10-08T08:19:13;6.85;;;3.67;;
18610;SDS011;9435;52.122;5.502;2023-10-08T08:21:42;7.55;;;4.05;;
18610;SDS011;9435;52.122;5.502;2023-10-08T08:24:14;7.90;;;3.60;;
18610;SDS011;9435;52.122;5.502;2023-10-08T08:26:55;7.88;;;3.80;;
18610;SDS011;9435;52.122;5.502;2023-10-08T08:29:33;6.13;;;3.08;;
18610;SDS011;9435;52.122;5.502;2023-10-08T08:32:09;8.15;;;3.47;;
18610;SDS011;9435;52.122;5.502;2023-10-08T08:34:40;9.80;;;3.20;;
18610;SDS011;9435;52.122;5.502;2023-10-08T08:37:09;8.43;;;3.50;;
18610;SDS011;9435;52.122;5.502;2023-10-08T08:39:37;7.38;;;3.13;;
18610;SDS011;9435;52.122;5.502;2023-10-08T08:42:07;10.30;;;3.50;;
18610;SDS011;9435;52.122;5.502;2023-10-08T08:44:36;9.38;;;3.47;;
18610;SDS011;9435;52.122;5.502;2023-10-08T08:47:09;10.38;;;3.22;;
18610;SDS011;9435;52.122;5.502;2023-10-08T08:49:40;5.95;;;3.13;;
18610;SDS011;9435;52.122;5.502;2023-10-08T08:52:09;6.47;;;3.13;;
18610;SDS011;9435;52.122;5.502;2023-10-08T08:54:37;5.63;;;3.40;;
18610;SDS011;9435;52.122;5.502;2023-10-08T08:57:05;6.22;;;3.10;;
18610;SDS011;9435;52.122;5.502;2023-10-08T08:59:38;7.07;;;3.22;;
18610;SDS011;9435;52.122;5.502;2023-10-08T09:02:10;8.02;;;3.30;;
18610;SDS011;9435;52.122;5.502;2023-10-08T09:04:40;5.80;;;3.00;;
18610;SDS011;9435;52.122;5.502;2023-10-08T09:07:08;8.35;;;3.50;;
18610;SDS011;9435;52.122;5.502;2023-10-08T09:09:37;9.32;;;3.42;;
18610;SDS011;9435;52.122;5.502;2023-10-08T09:12:05;5.47;;;3.33;;
18610;SDS011;9435;52.122;5.502;2023-10-08T09:14:35;8.75;;;3.67;;
18610;SDS011;9435;52.122;5.502;2023-10-08T09:17:03;7.45;;;3.25;;
18610;SDS011;9435;52.122;5.502;2023-10-08T09:19:35;6.80;;;3.42;;
18610;SDS011;9435;52.122;5.502;2023-10-08T09:22:04;7.38;;;3.33;;
18610;SDS011;9435;52.122;5.502;2023-10-08T09:24:36;7.43;;;3.72;;
18610;SDS011;9435;52.122;5.502;2023-10-08T09:27:05;6.25;;;3.30;;
18610;SDS011;9435;52.122;5.502;2023-10-08T09:29:34;6.50;;;3.50;;
18610;SDS011;9435;52.122;5.502;2023-10-08T09:32:05;7.07;;;3.28;;
18610;SDS011;9435;52.122;5.502;2023-10-08T09:34:34;8.75;;;3.33;;
18610;SDS011;9435;52.122;5.502;2023-10-08T09:37:01;7.20;;;3.40;;
18610;SDS011;9435;52.122;5.502;2023-10-08T09:39:29;5.47;;;2.92;;
18610;SDS011;9435;52.122;5.502;2023-10-08T09:41:59;7.93;;;3.58;;
18610;SDS011;9435;52.122;5.502;2023-10-08T09:44:30;6.82;;;3.25;;
18610;SDS011;9435;52.122;5.502;2023-10-08T09:46:59;5.85;;;3.38;;
18610;SDS011;9435;52.122;5.502;2023-10-08T09:49:30;6.45;;;3.70;;
18610;SDS011;9435;52.122;5.502;2023-10-08T09:52:01;6.05;;;3.63;;
18610;SDS011;9435;52.122;5.502;2023-10-08T09:54:31;6.00;;;3.60;;
18610;SDS011;9435;52.122;5.502;2023-10-08T09:57:05;6.95;;;3.80;;
18610;SDS011;9435;52.122;5.502;2023-10-08T09:59:34;6.40;;;3.88;;
18610;SDS011;9435;52.122;5.502;2023-10-08T10:02:03;6.15;;;3.78;;
18610;SDS011;9435;52.122;5.502;2023-10-08T10:04:34;6.15;;;3.97;;
18610;SDS011;9435;52.122;5.502;2023-10-08T10:07:08;5.45;;;3.60;;
18610;SDS011;9435;52.122;5.502;2023-10-08T10:09:38;5.63;;;3.60;;
18610;SDS011;9435;52.122;5.502;2023-10-08T10:12:05;7.10;;;4.55;;
18610;SDS011;9435;52.122;5.502;2023-10-08T10:14:42;8.10;;;4.30;;
18610;SDS011;9435;52.122;5.502;2023-10-08T10:17:14;7.35;;;4.80;;
18610;SDS011;9435;52.122;5.502;2023-10-08T10:19:44;7.20;;;4.82;;
18610;SDS011;9435;52.122;5.502;2023-10-08T10:22:13;8.10;;;4.75;;
18610;SDS011;9435;52.122;5.502;2023-10-08T10:24:53;7.63;;;4.30;;
18610;SDS011;9435;52.122;5.502;2023-10-08T10:27:20;7.32;;;4.22;;
18610;SDS011;9435;52.122;5.502;2023-10-08T10:29:48;6.82;;;4.40;;
18610;SDS011;9435;52.122;5.502;2023-10-08T10:32:17;7.72;;;4.32;;
18610;SDS011;9435;52.122;5.502;2023-10-08T10:34:44;6.10;;;4.00;;
18610;SDS011;9435;52.122;5.502;2023-10-08T10:37:12;7.35;;;5.03;;
18610;SDS011;9435;52.122;5.502;2023-10-08T10:39:51;8.75;;;5.50;;
18610;SDS011;9435;52.122;5.502;2023-10-08T10:42:20;10.23;;;5.40;;
18610;SDS011;9435;52.122;5.502;2023-10-08T10:44:49;9.00;;;5.28;;
18610;SDS011;9435;52.122;5.502;2023-10-08T10:47:18;9.80;;;5.70;;
18610;SDS011;9435;52.122;5.502;2023-10-08T10:50:07;7.15;;;5.22;;
18610;SDS011;9435;52.122;5.502;2023-10-08T10:52:56;9.13;;;5.85;;
18610;SDS011;9435;52.122;5.502;2023-10-08T10:55:24;7.40;;;5.07;;
18610;SDS011;9435;52.122;5.502;2023-10-08T10:57:58;9.25;;;5.82;;
18610;SDS011;9435;52.122;5.502;2023-10-08T11:00:41;8.82;;;5.07;;
18610;SDS011;9435;52.122;5.502;2023-10-08T11:03:21;8.30;;;5.13;;
18610;SDS011;9435;52.122;5.502;2023-10-08T11:05:50;8.13;;;5.30;;
18610;SDS011;9435;52.122;5.502;2023-10-08T11:08:20;10.15;;;5.15;;
18610;SDS011;9435;52.122;5.502;2023-10-08T11:10:49;8.48;;;5.15;;
18610;SDS011;9435;52.122;5.502;2023-10-08T11:13:18;9.75;;;5.07;;
18610;SDS011;9435;52.122;5.502;2023-10-08T11:15:49;7.13;;;4.80;;
18610;SDS011;9435;52.122;5.502;2023-10-08T11:18:18;7.80;;;4.95;;
18610;SDS011;9435;52.122;5.502;2023-10-08T11:20:48;8.20;;;4.70;;
18610;SDS011;9435;52.122;5.502;2023-10-08T11:23:32;7.85;;;4.95;;
18610;SDS011;9435;52.122;5.502;2023-10-08T11:26:01;8.02;;;4.97;;
18610;SDS011;9435;52.122;5.502;2023-10-08T11:28:31;8.15;;;4.57;;
18610;SDS011;9435;52.122;5.502;2023-10-08T11:31:02;6.53;;;4.40;;
18610;SDS011;9435;52.122;5.502;2023-10-08T11:33:34;10.07;;;5.70;;
18610;SDS011;9435;52.122;5.502;2023-10-08T11:36:02;7.68;;;5.07;;
18610;SDS011;9435;52.122;5.502;2023-10-08T11:38:38;6.38;;;3.90;;
18610;SDS011;9435;52.122;5.502;2023-10-08T11:41:09;8.68;;;4.05;;
18610;SDS011;9435;52.122;5.502;2023-10-08T11:43:46;6.03;;;3.58;;
18610;SDS011;9435;52.122;5.502;2023-10-08T11:46:21;8.10;;;3.72;;
18610;SDS011;9435;52.122;5.502;2023-10-08T11:48:50;6.63;;;3.47;;
18610;SDS011;9435;52.122;5.502;2023-10-08T11:51:18;6.20;;;3.50;;
18610;SDS011;9435;52.122;5.502;2023-10-08T11:53:49;7.20;;;3.70;;
18610;SDS011;9435;52.122;5.502;2023-10-08T11:56:18;6.07;;;3.30;;
18610;SDS011;9435;52.122;5.502;2023-10-08T11:58:48;7.00;;;3.22;;
18610;SDS011;9435;52.122;5.502;2023-10-08T12:01:16;6.78;;;3.45;;
18610;SDS011;9435;52.122;5.502;2023-10-08T12:03:45;5.68;;;3.20;;
18610;SDS011;9435;52.122;5.502;2023-10-08T12:06:15;7.45;;;3.30;;
18610;SDS011;9435;52.122;5.502;2023-10-08T12:08:44;6.05;;;3.28;;
18610;SDS011;9435;52.122;5.502;2023-10-08T12:11:15;6.60;;;3.58;;
18610;SDS011;9435;52.122;5.502;2023-10-08T12:13:42;10.52;;;3.58;;
18610;SDS011;9435;52.122;5.502;2023-10-08T12:16:11;6.20;;;3.13;;
18610;SDS011;9435;52.122;5.502;2023-10-08T12:18:43;5.97;;;3.03;;
18610;SDS011;9435;52.122;5.502;2023-10-08T12:21:18;6.20;;;3.22;;
18610;SDS011;9435;52.122;5.502;2023-10-08T12:23:47;4.60;;;2.60;;
18610;SDS011;9435;52.122;5.502;2023-10-08T12:26:15;6.80;;;2.88;;
18610;SDS011;9435;52.122;5.502;2023-10-08T12:28:44;7.55;;;3.30;;
18610;SDS011;9435;52.122;5.502;2023-10-08T12:31:13;5.68;;;2.85;;
18610;SDS011;9435;52.122;5.502;2023-10-08T12:33:42;5.10;;;2.72;;
18610;SDS011;9435;52.122;5.502;2023-10-08T12:36:13;6.18;;;3.10;;
18610;SDS011;9435;52.122;5.502;2023-10-08T12:38:42;4.88;;;2.65;;
18610;SDS011;9435;52.122;5.502;2023-10-08T12:41:10;6.70;;;2.38;;
18610;SDS011;9435;52.122;5.502;2023-10-08T12:43:45;5.57;;;2.40;;
18610;SDS011;9435;52.122;5.502;2023-10-08T12:46:17;5.25;;;2.20;;
18610;SDS011;9435;52.122;5.502;2023-10-08T12:48:49;5.82;;;2.20;;
18610;SDS011;9435;52.122;5.502;2023-10-08T12:51:20;4.50;;;2.03;;
18610;SDS011;9435;52.122;5.502;2023-10-08T12:53:49;4.75;;;2.03;;
18610;SDS011;9435;52.122;5.502;2023-10-08T12:56:23;4.05;;;1.75;;
18610;SDS011;9435;52.122;5.502;2023-10-08T12:58:57;5.00;;;1.52;;
18610;SDS011;9435;52.122;5.502;2023-10-08T13:01:24;3.28;;;1.55;;
18610;SDS011;9435;52.122;5.502;2023-10-08T13:03:54;3.47;;;1.25;;
18610;SDS011;9435;52.122;5.502;2023-10-08T13:06:27;4.38;;;1.40;;
18610;SDS011;9435;52.122;5.502;2023-10-08T13:08:54;6.60;;;1.50;;
18610;SDS011;9435;52.122;5.502;2023-10-08T13:11:23;2.92;;;1.40;;
18610;SDS011;9435;52.122;5.502;2023-10-08T13:13:51;3.15;;;1.35;;
18610;SDS011;9435;52.122;5.502;2023-10-08T13:16:19;5.43;;;1.50;;
18610;SDS011;9435;52.122;5.502;2023-10-08T13:18:47;4.93;;;1.58;;
18610;SDS011;9435;52.122;5.502;2023-10-08T13:21:14;5.50;;;2.08;;
18610;SDS011;9435;52.122;5.502;2023-10-08T13:23:45;8.40;;;2.33;;
18610;SDS011;9435;52.122;5.502;2023-10-08T13:26:14;5.00;;;2.00;;
18610;SDS011;9435;52.122;5.502;2023-10-08T13:28:42;7.07;;;2.40;;
18610;SDS011;9435;52.122;5.502;2023-10-08T13:31:10;4.30;;;1.85;;
18610;SDS011;9435;52.122;5.502;2023-10-08T13:33:37;5.35;;;2.05;;
18610;SDS011;9435;52.122;5.502;2023-10-08T13:36:07;6.10;;;2.22;;
18610;SDS011;9435;52.122;5.502;2023-10-08T13:38:34;7.55;;;2.25;;
18610;SDS011;9435;52.122;5.502;2023-10-08T13:41:04;7.00;;;2.30;;
18610;SDS011;9435;52.122;5.502;2023-10-08T13:43:40;4.75;;;2.25;;
18610;SDS011;9435;52.122;5.502;2023-10-08T13:46:10;5.50;;;2.67;;
18610;SDS011;9435;52.122;5.502;2023-10-08T13:48:39;6.88;;;2.65;;
18610;SDS011;9435;52.122;5.502;2023-10-08T13:51:07;6.82;;;2.50;;
18610;SDS011;9435;52.122;5.502;2023-10-08T13:53:39;7.30;;;2.83;;
18610;SDS011;9435;52.122;5.502;2023-10-08T13:56:07;8.27;;;2.90;;
18610;SDS011;9435;52.122;5.502;2023-10-08T13:58:36;6.95;;;2.80;;
18610;SDS011;9435;52.122;5.502;2023-10-08T14:01:06;6.45;;;2.63;;
18610;SDS011;9435;52.122;5.502;2023-10-08T14:03:44;6.65;;;2.75;;
18610;SDS011;9435;52.122;5.502;2023-10-08T14:06:12;6.47;;;2.70;;
18610;SDS011;9435;52.122;5.502;2023-10-08T14:08:41;5.60;;;3.00;;
18610;SDS011;9435;52.122;5.502;2023-10-08T14:11:18;5.95;;;2.70;;
18610;SDS011;9435;52.122;5.502;2023-10-08T14:13:48;6.60;;;2.58;;
18610;SDS011;9435;52.122;5.502;2023-10-08T14:16:16;5.80;;;2.80;;
18610;SDS011;9435;52.122;5.502;2023-10-08T14:18:48;6.65;;;2.90;;
18610;SDS011;9435;52.122;5.502;2023-10-08T14:21:19;7.80;;;2.75;;
18610;SDS011;9435;52.122;5.502;2023-10-08T14:23:49;6.80;;;2.70;;
18610;SDS011;9435;52.122;5.502;2023-10-08T14:26:18;7.07;;;2.95;;
18610;SDS011;9435;52.122;5.502;2023-10-08T14:28:48;5.32;;;2.70;;
18610;SDS011;9435;52.122;5.502;2023-10-08T14:31:18;6.72;;;3.10;;
18610;SDS011;9435;52.122;5.502;2023-10-08T14:33:47;7.82;;;3.30;;
18610;SDS011;9435;52.122;5.502;2023-10-08T14:36:30;7.20;;;2.70;;
18610;SDS011;9435;52.122;5.502;2023-10-08T14:39:14;6.15;;;3.00;;
18610;SDS011;9435;52.122;5.502;2023-10-08T14:42:00;7.28;;;2.70;;
18610;SDS011;9435;52.122;5.502;2023-10-08T14:44:45;5.55;;;3.15;;
18610;SDS011;9435;52.122;5.502;2023-10-08T14:47:14;6.38;;;3.00;;
18610;SDS011;9435;52.122;5.502;2023-10-08T14:49:41;10.32;;;3.50;;
18610;SDS011;9435;52.122;5.502;2023-10-08T14:52:10;5.63;;;2.80;;
18610;SDS011;9435;52.122;5.502;2023-10-08T14:54:38;5.97;;;3.10;;
18610;SDS011;9435;52.122;5.502;2023-10-08T14:57:08;6.43;;;3.28;;
18610;SDS011;9435;52.122;5.502;2023-10-08T14:59:37;8.82;;;3.20;;
18610;SDS011;9435;52.122;5.502;2023-10-08T15:02:04;10.25;;;3.85;;
18610;SDS011;9435;52.122;5.502;2023-10-08T15:04:33;6.35;;;3.33;;
18610;SDS011;9435;52.122;5.502;2023-10-08T15:07:04;8.02;;;3.75;;
18610;SDS011;9435;52.122;5.502;2023-10-08T15:09:33;8.85;;;3.88;;
18610;SDS011;9435;52.122;5.502;2023-10-08T15:12:01;6.60;;;3.58;;
18610;SDS011;9435;52.122;5.502;2023-10-08T15:14:29;7.75;;;3.22;;
18610;SDS011;9435;52.122;5.502;2023-10-08T15:16:56;6.95;;;3.65;;
18610;SDS011;9435;52.122;5.502;2023-10-08T15:19:25;7.85;;;3.78;;
18610;SDS011;9435;52.122;5.502;2023-10-08T15:21:52;6.45;;;3.55;;
18610;SDS011;9435;52.122;5.502;2023-10-08T15:24:19;6.47;;;3.22;;